sensor_id;sensor_type;location;lat;lon;timestamp;P1;durP1;ratioP1;P2;durP2;ratioP2
63782;SDS011;49925;52.522;5.732;2022-09-01T00:02:28;8.82;;;3.40;;
63782;SDS011;49925;52.522;5.732;2022-09-01T00:04:56;11.57;;;3.30;;
63782;SDS011;49925;52.522;5.732;2022-09-01T00:07:24;11.63;;;3.50;;
63782;SDS011;49925;52.522;5.732;2022-09-01T00:09:56;13.35;;;3.75;;
63782;SDS011;49925;52.522;5.732;2022-09-01T00:12:25;13.60;;;3.03;;
63782;SDS011;49925;52.522;5.732;2022-09-01T00:14:54;9.10;;;3.20;;
63782;SDS011;49925;52.522;5.732;2022-09-01T00:17:21;6.95;;;3.17;;
63782;SDS011;49925;52.522;5.732;2022-09-01T00:19:48;8.35;;;3.30;;
63782;SDS011;49925;52.522;5.732;2022-09-01T00:22:15;8.82;;;3.13;;
63782;SDS011;49925;52.522;5.732;2022-09-01T00:52:18;16.42;;;3.70;;
63782;SDS011;49925;52.522;5.732;2022-09-01T00:55:07;7.32;;;3.25;;
63782;SDS011;49925;52.522;5.732;2022-09-01T00:57:44;8.35;;;3.50;;
63782;SDS011;49925;52.522;5.732;2022-09-01T01:00:17;12.15;;;3.35;;
63782;SDS011;49925;52.522;5.732;2022-09-01T01:02:47;10.05;;;3.35;;
63782;SDS011;49925;52.522;5.732;2022-09-01T01:05:22;8.20;;;3.28;;
63782;SDS011;49925;52.522;5.732;2022-09-01T01:08:00;7.35;;;3.35;;
63782;SDS011;49925;52.522;5.732;2022-09-01T01:10:29;8.05;;;3.22;;
63782;SDS011;49925;52.522;5.732;2022-09-01T01:12:59;8.95;;;3.30;;
63782;SDS011;49925;52.522;5.732;2022-09-01T01:17:57;6.43;;;3.42;;
63782;SDS011;49925;52.522;5.732;2022-09-01T01:20:25;9.77;;;3.25;;
63782;SDS011;49925;52.522;5.732;2022-09-01T01:23:18;8.98;;;3.60;;
63782;SDS011;49925;52.522;5.732;2022-09-01T01:25:53;10.48;;;3.72;;
63782;SDS011;49925;52.522;5.732;2022-09-01T01:28:28;14.70;;;4.28;;
63782;SDS011;49925;52.522;5.732;2022-09-01T01:31:02;13.35;;;3.75;;
63782;SDS011;49925;52.522;5.732;2022-09-01T01:33:38;10.07;;;3.50;;
63782;SDS011;49925;52.522;5.732;2022-09-01T01:36:24;9.95;;;3.70;;
63782;SDS011;49925;52.522;5.732;2022-09-01T01:38:59;12.60;;;3.95;;
63782;SDS011;49925;52.522;5.732;2022-09-01T01:41:37;12.23;;;3.85;;
63782;SDS011;49925;52.522;5.732;2022-09-01T01:44:08;9.70;;;3.80;;
63782;SDS011;49925;52.522;5.732;2022-09-01T01:46:39;9.38;;;3.75;;
63782;SDS011;49925;52.522;5.732;2022-09-01T01:49:09;13.20;;;4.30;;
63782;SDS011;49925;52.522;5.732;2022-09-01T01:51:38;8.93;;;4.10;;
63782;SDS011;49925;52.522;5.732;2022-09-01T01:54:06;7.15;;;3.85;;
63782;SDS011;49925;52.522;5.732;2022-09-01T01:56:34;10.07;;;4.07;;
63782;SDS011;49925;52.522;5.732;2022-09-01T01:59:07;9.43;;;3.67;;
63782;SDS011;49925;52.522;5.732;2022-09-01T02:01:37;9.00;;;3.75;;
63782;SDS011;49925;52.522;5.732;2022-09-01T02:04:04;8.20;;;3.90;;
63782;SDS011;49925;52.522;5.732;2022-09-01T02:06:32;8.70;;;4.13;;
63782;SDS011;49925;52.522;5.732;2022-09-01T03:36:06;8.75;;;4.00;;
63782;SDS011;49925;52.522;5.732;2022-09-01T03:38:40;11.85;;;3.90;;
63782;SDS011;49925;52.522;5.732;2022-09-01T03:41:09;7.75;;;3.85;;
63782;SDS011;49925;52.522;5.732;2022-09-01T03:46:12;12.32;;;3.88;;
63782;SDS011;49925;52.522;5.732;2022-09-01T03:48:50;9.48;;;3.80;;
63782;SDS011;49925;52.522;5.732;2022-09-01T03:51:20;10.02;;;4.05;;
63782;SDS011;49925;52.522;5.732;2022-09-01T03:53:52;7.80;;;3.63;;
63782;SDS011;49925;52.522;5.732;2022-09-01T03:56:24;6.70;;;3.95;;
63782;SDS011;49925;52.522;5.732;2022-09-01T03:58:54;6.90;;;3.90;;
63782;SDS011;49925;52.522;5.732;2022-09-01T04:01:26;5.97;;;3.85;;
63782;SDS011;49925;52.522;5.732;2022-09-01T04:42:17;14.70;;;4.72;;
63782;SDS011;49925;52.522;5.732;2022-09-01T04:44:52;12.30;;;4.60;;
63782;SDS011;49925;52.522;5.732;2022-09-01T04:47:21;12.35;;;4.05;;
63782;SDS011;49925;52.522;5.732;2022-09-01T04:50:02;11.57;;;4.38;;
63782;SDS011;49925;52.522;5.732;2022-09-01T04:52:39;14.48;;;4.68;;
63782;SDS011;49925;52.522;5.732;2022-09-01T04:57:44;7.15;;;4.13;;
63782;SDS011;49925;52.522;5.732;2022-09-01T05:00:15;20.20;;;4.93;;
63782;SDS011;49925;52.522;5.732;2022-09-01T05:02:52;15.48;;;4.57;;
63782;SDS011;49925;52.522;5.732;2022-09-01T05:05:40;16.80;;;4.55;;
63782;SDS011;49925;52.522;5.732;2022-09-01T05:08:10;10.68;;;4.47;;
63782;SDS011;49925;52.522;5.732;2022-09-01T05:10:49;15.40;;;4.25;;
63782;SDS011;49925;52.522;5.732;2022-09-01T05:18:32;11.70;;;4.30;;
63782;SDS011;49925;52.522;5.732;2022-09-01T05:21:03;11.80;;;4.55;;
63782;SDS011;49925;52.522;5.732;2022-09-01T05:23:39;10.35;;;4.70;;
63782;SDS011;49925;52.522;5.732;2022-09-01T05:26:16;8.07;;;4.43;;
63782;SDS011;49925;52.522;5.732;2022-09-01T05:28:50;8.98;;;3.95;;
63782;SDS011;49925;52.522;5.732;2022-09-01T05:33:49;20.45;;;5.38;;
63782;SDS011;49925;52.522;5.732;2022-09-01T05:36:17;20.48;;;4.40;;
63782;SDS011;49925;52.522;5.732;2022-09-01T05:38:48;11.60;;;4.43;;
63782;SDS011;49925;52.522;5.732;2022-09-01T05:41:17;9.52;;;5.00;;
63782;SDS011;49925;52.522;5.732;2022-09-01T05:43:46;10.73;;;4.65;;
63782;SDS011;49925;52.522;5.732;2022-09-01T05:46:16;10.05;;;4.82;;
63782;SDS011;49925;52.522;5.732;2022-09-01T05:48:46;11.00;;;4.88;;
63782;SDS011;49925;52.522;5.732;2022-09-01T05:51:20;9.48;;;5.00;;
63782;SDS011;49925;52.522;5.732;2022-09-01T05:54:09;7.68;;;4.50;;
63782;SDS011;49925;52.522;5.732;2022-09-01T05:56:37;10.82;;;5.05;;
63782;SDS011;49925;52.522;5.732;2022-09-01T05:59:09;7.13;;;4.30;;
63782;SDS011;49925;52.522;5.732;2022-09-01T06:01:54;11.35;;;4.50;;
63782;SDS011;49925;52.522;5.732;2022-09-01T06:04:21;9.60;;;4.40;;
63782;SDS011;49925;52.522;5.732;2022-09-01T06:06:53;13.40;;;4.50;;
63782;SDS011;49925;52.522;5.732;2022-09-01T06:09:35;9.98;;;4.43;;
63782;SDS011;49925;52.522;5.732;2022-09-01T06:14:32;9.55;;;5.10;;
63782;SDS011;49925;52.522;5.732;2022-09-01T06:16:59;12.45;;;4.95;;
63782;SDS011;49925;52.522;5.732;2022-09-01T06:19:27;8.10;;;4.75;;
63782;SDS011;49925;52.522;5.732;2022-09-01T06:22:04;7.90;;;4.50;;
63782;SDS011;49925;52.522;5.732;2022-09-01T06:24:31;9.68;;;4.22;;
63782;SDS011;49925;52.522;5.732;2022-09-01T06:26:59;9.02;;;5.10;;
63782;SDS011;49925;52.522;5.732;2022-09-01T06:29:27;11.43;;;4.60;;
63782;SDS011;49925;52.522;5.732;2022-09-01T06:31:57;11.10;;;5.70;;
63782;SDS011;49925;52.522;5.732;2022-09-01T06:34:25;17.20;;;5.57;;
63782;SDS011;49925;52.522;5.732;2022-09-01T06:36:52;13.95;;;5.35;;
63782;SDS011;49925;52.522;5.732;2022-09-01T06:39:20;12.90;;;5.78;;
63782;SDS011;49925;52.522;5.732;2022-09-01T06:41:48;14.10;;;5.68;;
63782;SDS011;49925;52.522;5.732;2022-09-01T06:44:18;18.48;;;6.03;;
63782;SDS011;49925;52.522;5.732;2022-09-01T06:49:18;10.90;;;5.80;;
63782;SDS011;49925;52.522;5.732;2022-09-01T06:51:47;11.45;;;5.50;;
63782;SDS011;49925;52.522;5.732;2022-09-01T06:54:17;12.82;;;5.40;;
63782;SDS011;49925;52.522;5.732;2022-09-01T06:56:46;13.77;;;5.35;;
63782;SDS011;49925;52.522;5.732;2022-09-01T06:59:17;19.52;;;5.43;;
63782;SDS011;49925;52.522;5.732;2022-09-01T07:01:46;16.85;;;5.72;;
63782;SDS011;49925;52.522;5.732;2022-09-01T07:04:15;13.02;;;5.47;;
63782;SDS011;49925;52.522;5.732;2022-09-01T07:06:45;10.43;;;5.22;;
63782;SDS011;49925;52.522;5.732;2022-09-01T07:09:36;14.00;;;5.32;;
63782;SDS011;49925;52.522;5.732;2022-09-01T07:12:15;16.20;;;5.30;;
63782;SDS011;49925;52.522;5.732;2022-09-01T08:00:37;10.73;;;4.55;;
63782;SDS011;49925;52.522;5.732;2022-09-01T08:05:33;13.20;;;4.80;;
63782;SDS011;49925;52.522;5.732;2022-09-01T08:08:00;7.18;;;4.45;;
63782;SDS011;49925;52.522;5.732;2022-09-01T08:10:28;11.77;;;4.38;;
63782;SDS011;49925;52.522;5.732;2022-09-01T08:12:56;12.07;;;4.43;;
63782;SDS011;49925;52.522;5.732;2022-09-01T08:15:24;14.50;;;4.40;;
63782;SDS011;49925;52.522;5.732;2022-09-01T08:18:12;37.65;;;4.50;;
63782;SDS011;49925;52.522;5.732;2022-09-01T08:59:35;11.80;;;3.00;;
63782;SDS011;49925;52.522;5.732;2022-09-01T13:20:32;7.78;;;2.22;;
63782;SDS011;49925;52.522;5.732;2022-09-01T13:22:59;9.88;;;2.55;;
63782;SDS011;49925;52.522;5.732;2022-09-01T13:25:26;6.00;;;2.55;;
63782;SDS011;49925;52.522;5.732;2022-09-01T13:27:54;5.53;;;2.08;;
63782;SDS011;49925;52.522;5.732;2022-09-01T13:30:22;8.15;;;2.40;;
63782;SDS011;49925;52.522;5.732;2022-09-01T17:27:43;12.88;;;2.35;;
63782;SDS011;49925;52.522;5.732;2022-09-01T17:30:25;5.45;;;2.33;;
63782;SDS011;49925;52.522;5.732;2022-09-01T17:42:03;5.80;;;2.55;;
63782;SDS011;49925;52.522;5.732;2022-09-01T18:09:55;5.25;;;2.10;;
63782;SDS011;49925;52.522;5.732;2022-09-01T18:12:26;6.78;;;2.65;;
63782;SDS011;49925;52.522;5.732;2022-09-01T18:15:06;4.85;;;2.10;;
63782;SDS011;49925;52.522;5.732;2022-09-01T18:17:45;17.58;;;2.42;;
63782;SDS011;49925;52.522;5.732;2022-09-01T18:23:11;9.68;;;2.45;;
63782;SDS011;49925;52.522;5.732;2022-09-01T18:28:25;6.63;;;2.50;;
63782;SDS011;49925;52.522;5.732;2022-09-01T18:56:35;16.48;;;2.72;;
63782;SDS011;49925;52.522;5.732;2022-09-01T19:11:04;13.98;;;2.55;;
63782;SDS011;49925;52.522;5.732;2022-09-01T19:13:51;8.02;;;3.00;;
63782;SDS011;49925;52.522;5.732;2022-09-01T19:22:44;21.42;;;2.75;;
63782;SDS011;49925;52.522;5.732;2022-09-01T19:25:22;12.68;;;2.83;;
63782;SDS011;49925;52.522;5.732;2022-09-01T19:28:16;13.60;;;2.90;;
63782;SDS011;49925;52.522;5.732;2022-09-01T19:31:07;23.63;;;2.85;;
63782;SDS011;49925;52.522;5.732;2022-09-01T19:33:49;9.32;;;2.60;;
63782;SDS011;49925;52.522;5.732;2022-09-01T19:36:30;11.50;;;3.10;;
63782;SDS011;49925;52.522;5.732;2022-09-01T19:39:09;6.82;;;2.63;;
63782;SDS011;49925;52.522;5.732;2022-09-01T19:45:06;10.63;;;3.00;;
63782;SDS011;49925;52.522;5.732;2022-09-01T19:51:21;4.70;;;2.40;;
63782;SDS011;49925;52.522;5.732;2022-09-01T19:54:04;8.05;;;2.92;;
63782;SDS011;49925;52.522;5.732;2022-09-01T19:59:49;8.15;;;2.22;;
63782;SDS011;49925;52.522;5.732;2022-09-01T20:08:02;5.60;;;2.75;;
63782;SDS011;49925;52.522;5.732;2022-09-01T20:10:57;10.38;;;2.67;;
63782;SDS011;49925;52.522;5.732;2022-09-01T20:42:16;6.40;;;2.50;;
63782;SDS011;49925;52.522;5.732;2022-09-01T20:45:12;7.80;;;3.53;;
63782;SDS011;49925;52.522;5.732;2022-09-01T20:50:30;17.02;;;3.22;;
63782;SDS011;49925;52.522;5.732;2022-09-01T20:56:16;10.02;;;2.58;;
63782;SDS011;49925;52.522;5.732;2022-09-01T21:02:23;13.43;;;2.80;;
63782;SDS011;49925;52.522;5.732;2022-09-01T21:13:55;5.63;;;2.83;;
63782;SDS011;49925;52.522;5.732;2022-09-01T22:17:38;10.15;;;3.03;;
63782;SDS011;49925;52.522;5.732;2022-09-01T22:20:06;7.07;;;3.20;;
63782;SDS011;49925;52.522;5.732;2022-09-01T22:22:35;13.82;;;3.60;;
63782;SDS011;49925;52.522;5.732;2022-09-01T22:25:10;7.68;;;3.53;;
63782;SDS011;49925;52.522;5.732;2022-09-01T22:27:41;8.07;;;3.30;;
63782;SDS011;49925;52.522;5.732;2022-09-01T22:30:09;8.13;;;3.40;;
63782;SDS011;49925;52.522;5.732;2022-09-01T22:32:38;7.78;;;3.22;;
63782;SDS011;49925;52.522;5.732;2022-09-01T22:35:07;7.85;;;3.30;;
63782;SDS011;49925;52.522;5.732;2022-09-01T22:37:36;9.48;;;3.53;;
63782;SDS011;49925;52.522;5.732;2022-09-01T22:40:05;6.15;;;2.90;;
63782;SDS011;49925;52.522;5.732;2022-09-01T22:42:34;4.80;;;2.90;;
63782;SDS011;49925;52.522;5.732;2022-09-01T22:45:05;10.95;;;3.10;;
63782;SDS011;49925;52.522;5.732;2022-09-01T22:47:33;8.75;;;3.25;;
63782;SDS011;49925;52.522;5.732;2022-09-01T22:50:03;11.32;;;2.90;;
63782;SDS011;49925;52.522;5.732;2022-09-01T22:52:32;9.05;;;2.90;;
63782;SDS011;49925;52.522;5.732;2022-09-01T22:55:00;10.00;;;3.17;;
63782;SDS011;49925;52.522;5.732;2022-09-01T22:57:29;4.75;;;2.72;;
63782;SDS011;49925;52.522;5.732;2022-09-01T22:59:56;4.78;;;2.75;;
63782;SDS011;49925;52.522;5.732;2022-09-01T23:02:23;8.00;;;3.05;;
63782;SDS011;49925;52.522;5.732;2022-09-01T23:04:51;8.23;;;4.13;;
63782;SDS011;49925;52.522;5.732;2022-09-01T23:07:18;5.70;;;2.83;;
63782;SDS011;49925;52.522;5.732;2022-09-01T23:09:45;5.18;;;3.03;;
63782;SDS011;49925;52.522;5.732;2022-09-01T23:12:12;8.95;;;3.10;;
63782;SDS011;49925;52.522;5.732;2022-09-01T23:14:39;11.95;;;2.92;;
63782;SDS011;49925;52.522;5.732;2022-09-01T23:17:07;4.63;;;2.72;;
63782;SDS011;49925;52.522;5.732;2022-09-01T23:19:34;6.70;;;3.03;;
63782;SDS011;49925;52.522;5.732;2022-09-01T23:22:01;5.22;;;2.90;;
63782;SDS011;49925;52.522;5.732;2022-09-01T23:24:29;8.70;;;2.70;;
63782;SDS011;49925;52.522;5.732;2022-09-01T23:26:57;8.60;;;3.00;;
63782;SDS011;49925;52.522;5.732;2022-09-01T23:29:27;5.47;;;2.83;;
63782;SDS011;49925;52.522;5.732;2022-09-01T23:31:55;9.87;;;2.97;;
63782;SDS011;49925;52.522;5.732;2022-09-01T23:34:22;11.73;;;2.88;;
63782;SDS011;49925;52.522;5.732;2022-09-01T23:39:16;7.80;;;2.80;;
63782;SDS011;49925;52.522;5.732;2022-09-01T23:41:44;5.97;;;2.97;;
63782;SDS011;49925;52.522;5.732;2022-09-01T23:44:11;4.60;;;2.67;;
63782;SDS011;49925;52.522;5.732;2022-09-01T23:46:40;5.47;;;2.80;;
63782;SDS011;49925;52.522;5.732;2022-09-01T23:49:09;9.00;;;2.70;;
63782;SDS011;49925;52.522;5.732;2022-09-01T23:51:37;7.85;;;2.70;;
63782;SDS011;49925;52.522;5.732;2022-09-01T23:54:05;10.80;;;3.10;;
63782;SDS011;49925;52.522;5.732;2022-09-01T23:56:32;7.20;;;2.50;;
63782;SDS011;49925;52.522;5.732;2022-09-01T23:58:59;11.65;;;2.65;;
